sensor_id;sensor_type;location;lat;lon;timestamp;pressure;altitude;pressure_sealevel;temperature;humidity
80558;BME280;69901;43.524;-5.636;2023-11-19T00:02:12;102307.06;;;12.75;81.50
80558;BME280;69901;43.524;-5.636;2023-11-19T00:04:38;102312.44;;;12.89;81.21
80558;BME280;69901;43.524;-5.636;2023-11-19T00:07:06;102314.13;;;12.58;80.85
80558;BME280;69901;43.524;-5.636;2023-11-19T00:09:36;102308.41;;;12.35;81.38
80558;BME280;69901;43.524;-5.636;2023-11-19T00:12:05;102320.84;;;12.24;82.76
80558;BME280;69901;43.524;-5.636;2023-11-19T00:14:31;102312.38;;;12.39;80.60
80558;BME280;69901;43.524;-5.636;2023-11-19T00:16:57;102314.69;;;12.36;82.46
80558;BME280;69901;43.524;-5.636;2023-11-19T00:19:22;102305.88;;;12.65;81.88
80558;BME280;69901;43.524;-5.636;2023-11-19T00:21:48;102302.50;;;12.69;79.66
80558;BME280;69901;43.524;-5.636;2023-11-19T00:24:13;102293.13;;;12.59;80.66
80558;BME280;69901;43.524;-5.636;2023-11-19T00:26:42;102300.34;;;12.78;81.10
80558;BME280;69901;43.524;-5.636;2023-11-19T00:29:07;102288.53;;;12.84;80.50
80558;BME280;69901;43.524;-5.636;2023-11-19T00:31:33;102295.66;;;12.85;80.23
80558;BME280;69901;43.524;-5.636;2023-11-19T00:33:59;102286.69;;;12.78;80.27
80558;BME280;69901;43.524;-5.636;2023-11-19T00:36:24;102292.56;;;12.75;81.56
80558;BME280;69901;43.524;-5.636;2023-11-19T00:38:51;102299.13;;;12.74;80.30
80558;BME280;69901;43.524;-5.636;2023-11-19T00:41:18;102301.59;;;12.75;80.02
80558;BME280;69901;43.524;-5.636;2023-11-19T00:43:43;102297.34;;;12.55;79.79
80558;BME280;69901;43.524;-5.636;2023-11-19T00:46:09;102302.41;;;12.20;84.55
80558;BME280;69901;43.524;-5.636;2023-11-19T00:48:36;102291.56;;;12.45;84.60
80558;BME280;69901;43.524;-5.636;2023-11-19T00:51:02;102291.72;;;12.50;81.90
80558;BME280;69901;43.524;-5.636;2023-11-19T00:53:28;102290.59;;;12.57;81.59
80558;BME280;69901;43.524;-5.636;2023-11-19T00:55:54;102278.09;;;12.74;82.65
80558;BME280;69901;43.524;-5.636;2023-11-19T00:58:19;102276.16;;;12.82;83.05
80558;BME280;69901;43.524;-5.636;2023-11-19T01:00:45;102279.72;;;12.82;82.78
80558;BME280;69901;43.524;-5.636;2023-11-19T01:03:10;102273.19;;;12.83;81.12
80558;BME280;69901;43.524;-5.636;2023-11-19T01:05:37;102278.03;;;12.81;80.81
80558;BME280;69901;43.524;-5.636;2023-11-19T01:08:02;102276.09;;;12.63;82.81
80558;BME280;69901;43.524;-5.636;2023-11-19T01:10:29;102269.38;;;12.84;82.21
80558;BME280;69901;43.524;-5.636;2023-11-19T01:12:55;102266.44;;;12.86;81.62
80558;BME280;69901;43.524;-5.636;2023-11-19T01:15:21;102262.03;;;12.85;81.16
80558;BME280;69901;43.524;-5.636;2023-11-19T01:17:46;102259.50;;;12.83;80.82
80558;BME280;69901;43.524;-5.636;2023-11-19T01:20:12;102261.66;;;12.81;80.65
80558;BME280;69901;43.524;-5.636;2023-11-19T01:22:39;102257.28;;;12.73;80.50
80558;BME280;69901;43.524;-5.636;2023-11-19T01:25:06;102234.00;;;12.71;79.27
80558;BME280;69901;43.524;-5.636;2023-11-19T01:27:31;102252.69;;;12.43;81.77
80558;BME280;69901;43.524;-5.636;2023-11-19T01:29:57;102261.31;;;12.08;84.17
80558;BME280;69901;43.524;-5.636;2023-11-19T01:32:22;102265.34;;;11.99;85.22
80558;BME280;69901;43.524;-5.636;2023-11-19T01:34:50;102260.00;;;12.17;84.98
80558;BME280;69901;43.524;-5.636;2023-11-19T01:37:16;102267.88;;;12.01;84.59
80558;BME280;69901;43.524;-5.636;2023-11-19T01:39:44;102269.84;;;11.87;84.34
80558;BME280;69901;43.524;-5.636;2023-11-19T01:42:10;102260.44;;;11.76;85.97
80558;BME280;69901;43.524;-5.636;2023-11-19T01:44:37;102247.94;;;12.00;86.98
80558;BME280;69901;43.524;-5.636;2023-11-19T01:47:03;102252.59;;;12.31;85.90
80558;BME280;69901;43.524;-5.636;2023-11-19T01:49:30;102244.50;;;12.43;86.18
80558;BME280;69901;43.524;-5.636;2023-11-19T01:51:58;102257.63;;;12.59;86.11
80558;BME280;69901;43.524;-5.636;2023-11-19T01:54:24;102254.25;;;12.57;83.61
80558;BME280;69901;43.524;-5.636;2023-11-19T01:56:50;102258.16;;;12.43;82.13
80558;BME280;69901;43.524;-5.636;2023-11-19T01:59:18;102262.28;;;12.52;82.92
80558;BME280;69901;43.524;-5.636;2023-11-19T02:01:46;102256.78;;;12.58;81.23
80558;BME280;69901;43.524;-5.636;2023-11-19T02:04:11;102243.56;;;12.55;80.15
80558;BME280;69901;43.524;-5.636;2023-11-19T02:06:40;102252.03;;;12.47;80.05
80558;BME280;69901;43.524;-5.636;2023-11-19T02:09:08;102258.72;;;12.51;81.37
80558;BME280;69901;43.524;-5.636;2023-11-19T02:11:35;102257.88;;;12.51;80.52
80558;BME280;69901;43.524;-5.636;2023-11-19T02:14:01;102262.22;;;12.34;82.13
80558;BME280;69901;43.524;-5.636;2023-11-19T02:16:28;102260.28;;;12.09;83.55
80558;BME280;69901;43.524;-5.636;2023-11-19T02:18:54;102256.72;;;12.09;84.31
80558;BME280;69901;43.524;-5.636;2023-11-19T02:21:19;102271.66;;;12.38;84.54
80558;BME280;69901;43.524;-5.636;2023-11-19T02:23:45;102267.13;;;12.18;82.51
80558;BME280;69901;43.524;-5.636;2023-11-19T02:26:43;102262.66;;;12.31;81.40
80558;BME280;69901;43.524;-5.636;2023-11-19T02:29:11;102267.84;;;12.39;80.92
80558;BME280;69901;43.524;-5.636;2023-11-19T02:31:36;102269.34;;;12.35;79.98
80558;BME280;69901;43.524;-5.636;2023-11-19T02:34:02;102271.50;;;12.26;81.44
80558;BME280;69901;43.524;-5.636;2023-11-19T02:36:28;102257.75;;;12.39;81.96
80558;BME280;69901;43.524;-5.636;2023-11-19T02:38:53;102250.53;;;12.51;80.79
80558;BME280;69901;43.524;-5.636;2023-11-19T02:41:19;102260.56;;;12.57;80.99
80558;BME280;69901;43.524;-5.636;2023-11-19T02:43:45;102248.19;;;12.55;81.19
80558;BME280;69901;43.524;-5.636;2023-11-19T02:46:10;102251.38;;;12.52;81.38
80558;BME280;69901;43.524;-5.636;2023-11-19T02:48:36;102246.56;;;12.47;81.48
80558;BME280;69901;43.524;-5.636;2023-11-19T02:51:02;102245.38;;;12.37;82.17
80558;BME280;69901;43.524;-5.636;2023-11-19T02:53:37;102248.13;;;12.37;82.34
80558;BME280;69901;43.524;-5.636;2023-11-19T02:56:03;102251.75;;;12.31;79.48
80558;BME280;69901;43.524;-5.636;2023-11-19T02:58:37;102248.31;;;12.42;79.33
80558;BME280;69901;43.524;-5.636;2023-11-19T03:01:04;102239.88;;;12.43;79.31
80558;BME280;69901;43.524;-5.636;2023-11-19T03:03:39;102233.16;;;12.46;78.72
80558;BME280;69901;43.524;-5.636;2023-11-19T03:06:06;102227.63;;;12.21;78.61
80558;BME280;69901;43.524;-5.636;2023-11-19T03:08:32;102221.91;;;11.98;79.76
80558;BME280;69901;43.524;-5.636;2023-11-19T03:10:58;102236.72;;;12.15;81.53
80558;BME280;69901;43.524;-5.636;2023-11-19T03:13:24;102235.50;;;12.36;80.95
80558;BME280;69901;43.524;-5.636;2023-11-19T03:15:49;102225.94;;;12.26;79.87
80558;BME280;69901;43.524;-5.636;2023-11-19T03:18:15;102231.69;;;12.12;81.21
80558;BME280;69901;43.524;-5.636;2023-11-19T03:20:40;102228.72;;;12.20;82.11
80558;BME280;69901;43.524;-5.636;2023-11-19T03:23:06;102231.13;;;12.35;81.24
80558;BME280;69901;43.524;-5.636;2023-11-19T03:25:32;102220.16;;;12.41;78.52
80558;BME280;69901;43.524;-5.636;2023-11-19T03:28:02;102215.94;;;12.14;79.66
80558;BME280;69901;43.524;-5.636;2023-11-19T03:30:28;102231.00;;;12.23;81.37
80558;BME280;69901;43.524;-5.636;2023-11-19T03:32:55;102226.63;;;12.15;79.25
80558;BME280;69901;43.524;-5.636;2023-11-19T03:35:21;102222.28;;;12.08;80.30
80558;BME280;69901;43.524;-5.636;2023-11-19T03:37:47;102209.22;;;12.16;78.86
80558;BME280;69901;43.524;-5.636;2023-11-19T03:40:12;102213.00;;;12.15;79.42
80558;BME280;69901;43.524;-5.636;2023-11-19T03:42:38;102209.88;;;12.12;79.88
80558;BME280;69901;43.524;-5.636;2023-11-19T03:45:06;102218.13;;;12.30;78.57
80558;BME280;69901;43.524;-5.636;2023-11-19T03:47:34;102213.78;;;12.22;80.35
80558;BME280;69901;43.524;-5.636;2023-11-19T03:49:59;102221.81;;;12.11;80.69
80558;BME280;69901;43.524;-5.636;2023-11-19T03:52:25;102211.66;;;11.93;79.84
80558;BME280;69901;43.524;-5.636;2023-11-19T03:54:52;102221.25;;;12.02;80.28
80558;BME280;69901;43.524;-5.636;2023-11-19T03:57:18;102221.63;;;12.12;79.28
80558;BME280;69901;43.524;-5.636;2023-11-19T03:59:44;102226.41;;;12.17;78.61
80558;BME280;69901;43.524;-5.636;2023-11-19T04:02:10;102215.53;;;12.10;79.08
80558;BME280;69901;43.524;-5.636;2023-11-19T04:04:35;102219.69;;;12.19;77.79
80558;BME280;69901;43.524;-5.636;2023-11-19T04:07:01;102216.56;;;12.16;78.20
80558;BME280;69901;43.524;-5.636;2023-11-19T04:09:28;102218.09;;;12.05;78.00
80558;BME280;69901;43.524;-5.636;2023-11-19T04:11:54;102218.56;;;11.96;80.06
80558;BME280;69901;43.524;-5.636;2023-11-19T04:14:19;102225.28;;;11.93;81.81
80558;BME280;69901;43.524;-5.636;2023-11-19T04:16:45;102225.91;;;11.95;81.00
80558;BME280;69901;43.524;-5.636;2023-11-19T04:19:11;102225.28;;;11.93;80.04
80558;BME280;69901;43.524;-5.636;2023-11-19T04:21:36;102223.00;;;11.90;79.83
80558;BME280;69901;43.524;-5.636;2023-11-19T04:24:02;102211.16;;;12.03;79.05
80558;BME280;69901;43.524;-5.636;2023-11-19T04:26:28;102218.09;;;12.05;80.36
80558;BME280;69901;43.524;-5.636;2023-11-19T04:28:53;102220.81;;;12.05;81.50
80558;BME280;69901;43.524;-5.636;2023-11-19T04:31:19;102224.38;;;12.06;81.72
80558;BME280;69901;43.524;-5.636;2023-11-19T04:33:44;102223.56;;;12.05;80.47
80558;BME280;69901;43.524;-5.636;2023-11-19T04:36:10;102219.03;;;11.86;80.41
80558;BME280;69901;43.524;-5.636;2023-11-19T04:38:38;102230.34;;;11.90;80.20
80558;BME280;69901;43.524;-5.636;2023-11-19T04:41:04;102234.38;;;11.87;81.15
80558;BME280;69901;43.524;-5.636;2023-11-19T04:43:31;102231.75;;;12.05;80.49
80558;BME280;69901;43.524;-5.636;2023-11-19T04:45:57;102227.38;;;11.98;80.02
80558;BME280;69901;43.524;-5.636;2023-11-19T04:48:23;102232.28;;;11.83;80.98
80558;BME280;69901;43.524;-5.636;2023-11-19T04:50:48;102227.63;;;11.90;81.98
80558;BME280;69901;43.524;-5.636;2023-11-19T04:53:16;102219.84;;;11.93;81.56
80558;BME280;69901;43.524;-5.636;2023-11-19T04:55:42;102237.25;;;11.92;81.93
80558;BME280;69901;43.524;-5.636;2023-11-19T04:58:08;102236.31;;;11.67;80.60
80558;BME280;69901;43.524;-5.636;2023-11-19T05:00:34;102232.25;;;11.89;81.08
80558;BME280;69901;43.524;-5.636;2023-11-19T05:03:01;102233.28;;;11.88;79.54
80558;BME280;69901;43.524;-5.636;2023-11-19T05:05:26;102230.72;;;12.00;79.37
80558;BME280;69901;43.524;-5.636;2023-11-19T05:07:52;102236.75;;;12.08;80.56
80558;BME280;69901;43.524;-5.636;2023-11-19T05:10:19;102240.09;;;12.10;81.21
80558;BME280;69901;43.524;-5.636;2023-11-19T05:12:45;102231.91;;;12.10;81.69
80558;BME280;69901;43.524;-5.636;2023-11-19T05:15:10;102241.56;;;12.13;81.67
80558;BME280;69901;43.524;-5.636;2023-11-19T05:17:37;102234.03;;;12.08;79.31
80558;BME280;69901;43.524;-5.636;2023-11-19T05:20:03;102240.75;;;12.06;78.48
80558;BME280;69901;43.524;-5.636;2023-11-19T05:22:28;102253.38;;;12.00;79.91
80558;BME280;69901;43.524;-5.636;2023-11-19T05:24:54;102250.97;;;11.79;80.33
80558;BME280;69901;43.524;-5.636;2023-11-19T05:27:20;102244.00;;;11.90;80.23
80558;BME280;69901;43.524;-5.636;2023-11-19T05:29:45;102243.97;;;11.96;78.63
80558;BME280;69901;43.524;-5.636;2023-11-19T05:32:11;102243.31;;;12.01;78.46
80558;BME280;69901;43.524;-5.636;2023-11-19T05:34:36;102242.91;;;11.97;79.20
80558;BME280;69901;43.524;-5.636;2023-11-19T05:37:02;102238.09;;;11.93;78.69
80558;BME280;69901;43.524;-5.636;2023-11-19T05:39:28;102251.38;;;11.83;80.20
80558;BME280;69901;43.524;-5.636;2023-11-19T05:41:53;102245.25;;;11.94;79.42
80558;BME280;69901;43.524;-5.636;2023-11-19T05:44:19;102244.66;;;11.85;79.28
80558;BME280;69901;43.524;-5.636;2023-11-19T05:46:45;102237.25;;;11.92;77.58
80558;BME280;69901;43.524;-5.636;2023-11-19T05:49:11;102251.13;;;11.91;77.68
80558;BME280;69901;43.524;-5.636;2023-11-19T05:51:38;102246.53;;;11.85;78.96
80558;BME280;69901;43.524;-5.636;2023-11-19T05:54:06;102250.97;;;11.79;78.53
80558;BME280;69901;43.524;-5.636;2023-11-19T05:56:32;102258.75;;;11.62;79.63
80558;BME280;69901;43.524;-5.636;2023-11-19T05:58:59;102258.31;;;11.78;79.77
80558;BME280;69901;43.524;-5.636;2023-11-19T06:01:29;102255.63;;;11.72;80.16
80558;BME280;69901;43.524;-5.636;2023-11-19T06:03:55;102262.75;;;11.73;78.94
80558;BME280;69901;43.524;-5.636;2023-11-19T06:06:20;102251.31;;;11.38;78.80
80558;BME280;69901;43.524;-5.636;2023-11-19T06:08:46;102255.88;;;11.51;80.86
80558;BME280;69901;43.524;-5.636;2023-11-19T06:11:12;102255.63;;;11.65;79.24
80558;BME280;69901;43.524;-5.636;2023-11-19T06:13:44;102263.56;;;11.73;77.71
80558;BME280;69901;43.524;-5.636;2023-11-19T06:16:09;102265.47;;;11.79;77.96
80558;BME280;69901;43.524;-5.636;2023-11-19T06:18:36;102258.13;;;11.73;78.28
80558;BME280;69901;43.524;-5.636;2023-11-19T06:21:02;102257.69;;;11.70;79.16
80558;BME280;69901;43.524;-5.636;2023-11-19T06:23:27;102267.75;;;11.69;78.67
80558;BME280;69901;43.524;-5.636;2023-11-19T06:25:53;102269.19;;;11.85;79.92
80558;BME280;69901;43.524;-5.636;2023-11-19T06:28:18;102271.28;;;11.90;80.82
80558;BME280;69901;43.524;-5.636;2023-11-19T06:30:44;102267.50;;;11.84;80.80
80558;BME280;69901;43.524;-5.636;2023-11-19T06:33:13;102271.09;;;11.85;79.85
80558;BME280;69901;43.524;-5.636;2023-11-19T06:35:38;102269.25;;;11.72;79.80
80558;BME280;69901;43.524;-5.636;2023-11-19T06:38:04;102272.09;;;11.32;80.27
80558;BME280;69901;43.524;-5.636;2023-11-19T06:40:30;102272.81;;;11.59;82.85
80558;BME280;69901;43.524;-5.636;2023-11-19T06:42:56;102266.94;;;11.75;81.11
80558;BME280;69901;43.524;-5.636;2023-11-19T06:45:22;102274.88;;;11.84;81.03
80558;BME280;69901;43.524;-5.636;2023-11-19T06:47:48;102274.44;;;11.87;81.05
80558;BME280;69901;43.524;-5.636;2023-11-19T06:50:13;102269.84;;;11.87;80.70
80558;BME280;69901;43.524;-5.636;2023-11-19T06:52:40;102269.41;;;11.90;81.22
80558;BME280;69901;43.524;-5.636;2023-11-19T06:55:06;102264.97;;;11.89;81.29
80558;BME280;69901;43.524;-5.636;2023-11-19T06:57:32;102269.16;;;11.92;82.00
80558;BME280;69901;43.524;-5.636;2023-11-19T06:59:58;102269.00;;;11.87;82.11
80558;BME280;69901;43.524;-5.636;2023-11-19T07:02:24;102265.41;;;11.86;80.51
80558;BME280;69901;43.524;-5.636;2023-11-19T07:04:50;102267.28;;;11.92;79.74
80558;BME280;69901;43.524;-5.636;2023-11-19T07:07:15;102270.00;;;11.92;78.71
80558;BME280;69901;43.524;-5.636;2023-11-19T07:09:41;102268.81;;;11.75;78.48
80558;BME280;69901;43.524;-5.636;2023-11-19T07:12:07;102281.25;;;11.58;79.81
80558;BME280;69901;43.524;-5.636;2023-11-19T07:14:32;102282.56;;;11.29;80.99
80558;BME280;69901;43.524;-5.636;2023-11-19T07:16:57;102280.31;;;11.00;82.96
80558;BME280;69901;43.524;-5.636;2023-11-19T07:19:23;102285.97;;;10.92;83.72
80558;BME280;69901;43.524;-5.636;2023-11-19T07:21:49;102295.59;;;11.14;84.44
80558;BME280;69901;43.524;-5.636;2023-11-19T07:24:14;102291.81;;;11.15;83.33
80558;BME280;69901;43.524;-5.636;2023-11-19T07:26:43;102292.59;;;11.42;83.52
80558;BME280;69901;43.524;-5.636;2023-11-19T07:29:09;102293.19;;;11.57;82.00
80558;BME280;69901;43.524;-5.636;2023-11-19T07:31:35;102291.09;;;11.52;81.36
80558;BME280;69901;43.524;-5.636;2023-11-19T07:34:01;102294.19;;;11.82;80.72
80558;BME280;69901;43.524;-5.636;2023-11-19T07:36:26;102288.91;;;11.94;80.13
80558;BME280;69901;43.524;-5.636;2023-11-19T07:38:52;102286.56;;;11.97;79.59
80558;BME280;69901;43.524;-5.636;2023-11-19T07:41:18;102293.03;;;12.09;79.28
80558;BME280;69901;43.524;-5.636;2023-11-19T07:43:45;102287.53;;;12.16;77.99
80558;BME280;69901;43.524;-5.636;2023-11-19T07:46:13;102277.84;;;12.20;78.02
80558;BME280;69901;43.524;-5.636;2023-11-19T07:48:39;102285.59;;;12.23;77.52
80558;BME280;69901;43.524;-5.636;2023-11-19T07:51:05;102291.81;;;12.37;76.84
80558;BME280;69901;43.524;-5.636;2023-11-19T07:53:31;102289.28;;;12.35;76.92
80558;BME280;69901;43.524;-5.636;2023-11-19T07:55:58;102296.56;;;12.48;76.51
80558;BME280;69901;43.524;-5.636;2023-11-19T07:58:25;102294.69;;;12.48;76.76
80558;BME280;69901;43.524;-5.636;2023-11-19T08:00:51;102293.97;;;12.59;76.17
80558;BME280;69901;43.524;-5.636;2023-11-19T08:03:17;102304.78;;;12.72;76.00
80558;BME280;69901;43.524;-5.636;2023-11-19T08:05:44;102306.28;;;12.68;76.54
80558;BME280;69901;43.524;-5.636;2023-11-19T08:08:10;102302.31;;;12.64;77.52
80558;BME280;69901;43.524;-5.636;2023-11-19T08:10:35;102306.69;;;12.72;75.82
80558;BME280;69901;43.524;-5.636;2023-11-19T08:13:01;102303.03;;;12.53;75.48
80558;BME280;69901;43.524;-5.636;2023-11-19T08:15:27;102316.69;;;12.85;76.79
80558;BME280;69901;43.524;-5.636;2023-11-19T08:17:52;102317.28;;;12.87;76.28
80558;BME280;69901;43.524;-5.636;2023-11-19T08:20:18;102314.06;;;12.96;75.72
80558;BME280;69901;43.524;-5.636;2023-11-19T08:22:44;102314.84;;;13.03;76.20
80558;BME280;69901;43.524;-5.636;2023-11-19T08:25:09;102324.00;;;13.15;76.08
80558;BME280;69901;43.524;-5.636;2023-11-19T08:27:35;102321.16;;;13.29;75.60
80558;BME280;69901;43.524;-5.636;2023-11-19T08:30:00;102330.22;;;13.29;75.74
80558;BME280;69901;43.524;-5.636;2023-11-19T08:32:26;102333.78;;;13.30;76.15
80558;BME280;69901;43.524;-5.636;2023-11-19T08:34:52;102327.25;;;13.31;76.95
80558;BME280;69901;43.524;-5.636;2023-11-19T08:37:18;102335.84;;;13.09;78.49
80558;BME280;69901;43.524;-5.636;2023-11-19T08:39:48;102332.19;;;13.22;79.47
80558;BME280;69901;43.524;-5.636;2023-11-19T08:42:14;102335.94;;;13.46;78.43
80558;BME280;69901;43.524;-5.636;2023-11-19T08:44:41;102331.06;;;13.30;79.70
80558;BME280;69901;43.524;-5.636;2023-11-19T08:47:11;102342.63;;;13.68;79.05
80558;BME280;69901;43.524;-5.636;2023-11-19T08:49:37;102338.53;;;13.77;79.13
80558;BME280;69901;43.524;-5.636;2023-11-19T08:52:05;102343.69;;;13.85;78.57
80558;BME280;69901;43.524;-5.636;2023-11-19T08:54:32;102349.63;;;14.00;79.41
80558;BME280;69901;43.524;-5.636;2023-11-19T08:56:58;102350.22;;;14.20;78.66
80558;BME280;69901;43.524;-5.636;2023-11-19T08:59:24;102344.75;;;14.20;78.96
80558;BME280;69901;43.524;-5.636;2023-11-19T09:01:50;102352.50;;;14.23;78.44
80558;BME280;69901;43.524;-5.636;2023-11-19T09:04:15;102362.91;;;14.33;78.90
80558;BME280;69901;43.524;-5.636;2023-11-19T09:06:41;102352.19;;;14.50;78.74
80558;BME280;69901;43.524;-5.636;2023-11-19T09:09:08;102356.84;;;14.61;79.15
80558;BME280;69901;43.524;-5.636;2023-11-19T09:11:33;102356.03;;;14.60;79.10
80558;BME280;69901;43.524;-5.636;2023-11-19T09:13:59;102349.88;;;14.77;78.58
80558;BME280;69901;43.524;-5.636;2023-11-19T09:16:24;102353.84;;;14.92;78.42
80558;BME280;69901;43.524;-5.636;2023-11-19T09:18:50;102341.25;;;15.03;78.05
80558;BME280;69901;43.524;-5.636;2023-11-19T09:21:16;102345.91;;;15.14;78.07
80558;BME280;69901;43.524;-5.636;2023-11-19T09:23:41;102345.06;;;15.13;77.39
80558;BME280;69901;43.524;-5.636;2023-11-19T09:26:08;102341.50;;;15.25;76.92
80558;BME280;69901;43.524;-5.636;2023-11-19T09:28:35;102341.16;;;15.33;77.23
80558;BME280;69901;43.524;-5.636;2023-11-19T09:31:01;102348.06;;;15.35;77.09
80558;BME280;69901;43.524;-5.636;2023-11-19T09:33:29;102348.19;;;15.29;77.65
80558;BME280;69901;43.524;-5.636;2023-11-19T09:35:55;102346.50;;;15.39;77.63
80558;BME280;69901;43.524;-5.636;2023-11-19T09:38:20;102352.00;;;15.39;76.87
80558;BME280;69901;43.524;-5.636;2023-11-19T09:40:46;102352.94;;;15.45;77.13
80558;BME280;69901;43.524;-5.636;2023-11-19T09:43:14;102357.63;;;15.56;76.51
80558;BME280;69901;43.524;-5.636;2023-11-19T09:45:50;102360.63;;;15.66;77.01
80558;BME280;69901;43.524;-5.636;2023-11-19T09:48:19;102362.19;;;15.62;77.17
80558;BME280;69901;43.524;-5.636;2023-11-19T09:50:48;102357.97;;;15.71;77.32
80558;BME280;69901;43.524;-5.636;2023-11-19T09:53:15;102365.00;;;15.79;76.62
80558;BME280;69901;43.524;-5.636;2023-11-19T09:55:41;102354.25;;;15.89;76.53
80558;BME280;69901;43.524;-5.636;2023-11-19T09:58:07;102357.47;;;15.86;75.09
80558;BME280;69901;43.524;-5.636;2023-11-19T10:00:33;102353.38;;;16.00;74.64
80558;BME280;69901;43.524;-5.636;2023-11-19T10:03:00;102350.28;;;16.08;73.68
80558;BME280;69901;43.524;-5.636;2023-11-19T10:05:26;102362.09;;;16.08;74.14
80558;BME280;69901;43.524;-5.636;2023-11-19T10:07:52;102354.59;;;16.32;71.43
80558;BME280;69901;43.524;-5.636;2023-11-19T10:10:18;102356.94;;;16.24;71.33
80558;BME280;69901;43.524;-5.636;2023-11-19T10:12:47;102360.72;;;16.34;70.64
80558;BME280;69901;43.524;-5.636;2023-11-19T10:15:36;102350.34;;;16.25;71.81
80558;BME280;69901;43.524;-5.636;2023-11-19T10:18:02;102366.19;;;16.34;71.35
80558;BME280;69901;43.524;-5.636;2023-11-19T10:20:35;102356.41;;;16.38;71.69
80558;BME280;69901;43.524;-5.636;2023-11-19T10:23:00;102367.03;;;16.35;73.12
80558;BME280;69901;43.524;-5.636;2023-11-19T10:25:27;102373.56;;;16.45;71.73
80558;BME280;69901;43.524;-5.636;2023-11-19T10:27:56;102367.81;;;16.58;71.15
80558;BME280;69901;43.524;-5.636;2023-11-19T10:30:26;102372.56;;;16.63;70.98
80558;BME280;69901;43.524;-5.636;2023-11-19T10:35:35;102368.78;;;16.81;70.88
80558;BME280;69901;43.524;-5.636;2023-11-19T10:38:15;102369.44;;;16.88;71.70
80558;BME280;69901;43.524;-5.636;2023-11-19T10:40:41;102367.69;;;16.98;72.38
80558;BME280;69901;43.524;-5.636;2023-11-19T10:43:08;102368.31;;;17.00;71.01
80558;BME280;69901;43.524;-5.636;2023-11-19T10:45:34;102361.97;;;17.16;69.64
80558;BME280;69901;43.524;-5.636;2023-11-19T10:48:02;102363.13;;;17.21;70.26
80558;BME280;69901;43.524;-5.636;2023-11-19T10:50:31;102370.13;;;17.28;69.04
80558;BME280;69901;43.524;-5.636;2023-11-19T10:52:57;102376.13;;;17.42;68.17
80558;BME280;69901;43.524;-5.636;2023-11-19T10:55:33;102361.94;;;17.50;68.06
80558;BME280;69901;43.524;-5.636;2023-11-19T10:58:10;102379.91;;;17.69;67.92
80558;BME280;69901;43.524;-5.636;2023-11-19T11:00:50;102366.44;;;17.56;67.05
80558;BME280;69901;43.524;-5.636;2023-11-19T11:03:22;102366.13;;;17.69;66.65
80558;BME280;69901;43.524;-5.636;2023-11-19T11:05:50;102364.53;;;17.73;66.21
80558;BME280;69901;43.524;-5.636;2023-11-19T11:08:17;102364.78;;;17.72;67.47
80558;BME280;69901;43.524;-5.636;2023-11-19T11:10:45;102347.16;;;17.73;66.95
80558;BME280;69901;43.524;-5.636;2023-11-19T11:13:11;102360.09;;;17.72;68.07
80558;BME280;69901;43.524;-5.636;2023-11-19T11:15:38;102343.56;;;17.72;67.56
80558;BME280;69901;43.524;-5.636;2023-11-19T11:18:08;102345.06;;;17.80;67.25
80558;BME280;69901;43.524;-5.636;2023-11-19T11:20:34;102332.13;;;17.80;67.04
80558;BME280;69901;43.524;-5.636;2023-11-19T11:23:14;102340.00;;;17.72;68.62
80558;BME280;69901;43.524;-5.636;2023-11-19T11:28:43;102332.44;;;17.84;69.93
80558;BME280;69901;43.524;-5.636;2023-11-19T11:37:01;102315.31;;;18.03;69.38
80558;BME280;69901;43.524;-5.636;2023-11-19T11:39:32;102310.34;;;18.00;69.54
80558;BME280;69901;43.524;-5.636;2023-11-19T11:45:08;102303.09;;;18.16;68.71
80558;BME280;69901;43.524;-5.636;2023-11-19T11:50:18;102296.81;;;18.21;68.73
80558;BME280;69901;43.524;-5.636;2023-11-19T11:55:33;102302.81;;;18.39;68.09
80558;BME280;69901;43.524;-5.636;2023-11-19T11:58:00;102299.75;;;18.36;68.14
80558;BME280;69901;43.524;-5.636;2023-11-19T12:00:51;102293.59;;;18.29;68.54
80558;BME280;69901;43.524;-5.636;2023-11-19T12:03:20;102285.25;;;18.24;69.59
80558;BME280;69901;43.524;-5.636;2023-11-19T12:05:49;102290.03;;;18.33;69.60
80558;BME280;69901;43.524;-5.636;2023-11-19T12:08:19;102287.06;;;18.40;69.72
80558;BME280;69901;43.524;-5.636;2023-11-19T12:10:52;102267.91;;;18.50;69.30
80558;BME280;69901;43.524;-5.636;2023-11-19T12:13:20;102268.53;;;18.57;71.08
80558;BME280;69901;43.524;-5.636;2023-11-19T12:18:30;102273.53;;;18.60;70.99
80558;BME280;69901;43.524;-5.636;2023-11-19T12:20:56;102271.94;;;18.69;71.64
80558;BME280;69901;43.524;-5.636;2023-11-19T12:23:23;102257.59;;;18.67;71.03
80558;BME280;69901;43.524;-5.636;2023-11-19T12:25:49;102260.22;;;18.52;72.44
80558;BME280;69901;43.524;-5.636;2023-11-19T12:28:15;102251.34;;;18.50;72.34
80558;BME280;69901;43.524;-5.636;2023-11-19T12:30:45;102250.09;;;18.63;72.18
80558;BME280;69901;43.524;-5.636;2023-11-19T12:33:12;102256.22;;;18.65;71.61
80558;BME280;69901;43.524;-5.636;2023-11-19T12:35:41;102254.06;;;18.72;71.16
80558;BME280;69901;43.524;-5.636;2023-11-19T12:38:08;102255.97;;;18.71;70.11
80558;BME280;69901;43.524;-5.636;2023-11-19T12:40:34;102249.16;;;18.79;69.73
80558;BME280;69901;43.524;-5.636;2023-11-19T12:43:00;102243.84;;;18.72;70.33
80558;BME280;69901;43.524;-5.636;2023-11-19T12:45:35;102245.31;;;18.80;68.91
80558;BME280;69901;43.524;-5.636;2023-11-19T12:48:05;102240.69;;;18.90;68.59
80558;BME280;69901;43.524;-5.636;2023-11-19T12:50:53;102235.72;;;18.92;67.67
80558;BME280;69901;43.524;-5.636;2023-11-19T12:53:20;102226.06;;;18.90;66.38
80558;BME280;69901;43.524;-5.636;2023-11-19T12:55:45;102228.63;;;19.01;66.05
80558;BME280;69901;43.524;-5.636;2023-11-19T12:58:30;102222.00;;;19.02;66.58
80558;BME280;69901;43.524;-5.636;2023-11-19T13:01:04;102230.31;;;19.07;65.88
80558;BME280;69901;43.524;-5.636;2023-11-19T13:03:32;102221.78;;;19.14;65.57